Ravendale, California
Current Conditions -  °F | °C
As of 12:55 AM on Monday 20 Oct 2014 (Local Time) from KAAT Reporting Station
Clear Clear  
Wind Chill: 37°   Ceiling: Unl
Heat Index: 37°   Visibility: 10mi
Dew Point: 32°   Wind: 3mph
Humidity: 82%   Direction: 300°WNW
Pressure: 29.95"   Gusts: NA
Location:  40.8°N, 120.37°W
Report Text: KAAT 200755Z AUTO 30003KT 10SM CLR 03/00 A2995 RMK AO2 SLP117 T00280000 402391028 $
Loading
Personal Weather Stations






























Interactive Weather Map
Tropical Storm Tracking
New forecast layout! Learn more

10-Day Weather Forecast

Advertisements
Track Severe Weather on mobile